LGMT/MJT METAR and TAF weather

Enter ICAO airport designator
Station Type Date Time Source
LGMT METAR 2021/05/15 01:50 UTC NOAA

LGMT 150150Z VRB03KT CAVOK 16/09 Q1014


Station Type Date Time Source
LGMT Decoded METAR 2021/05/15 01:50 UTC NOAA

Mytilini Airport , Greece (LGMT) 39-04N 026-36E 5M
May 14, 2021 - 09:50 PM EDT / 2021.05.15 0150 UTC
Wind: Variable at 3 MPH (3 KT):0
Visibility: greater than 7 mile(s):0
Temperature: 60 F (16 C)
Dew Point: 48 F (9 C)
Relative Humidity: 63%
Pressure (altimeter): 29.94 in. Hg (1014 hPa)
ob: LGMT 150150Z VRB03KT CAVOK 16/09 Q1014
cycle: 2

Station Type Date Time Source
LGMT TAF 2012/09/21 03:06 UTC NOAA

TAF LGMT 210200Z 2103/2115 VRB05KT 9999 SCT020
BECMG 2103/2105 30015KT PROB30
TEMPO 2103/2106 7000 RA SCT018 BKN030
BECMG 2107/2109 29012KT

Example: see airport list